Página principal
METAR-TAF:

METAR-TAF

Aeroportos :

Bahrein, Bahrein

Aeroporto Internacional do Bahrain

latitude: 26-16N, longitude: 050-39E, altura: 2 m

Observação actual do tempo

O boletim foi feito há 47 minutos, às 20:30 UTC
Vento 6 kt de nor-noroeste
Temperatura 32°C
Humidade 56%
Pressão 1003 hPa
Visibilidade 10 km ou mais
sem nuvens abaixo de 1500 metros e sem cumulonimbus

METAR: OBBI 272030Z 33006KT CAVOK 32/22 Q1003 NOSIG

Hora: 00:17 (21:17 UTC)

Previsão

O boletim foi feito há 4 horas e 17 minutos, às 17:00 UTC
Previsão válida de 27 às 18 UTC a 29 às 00 UTC
Vento 12 kt de noroeste
Visibilidade: 8000 m
Tornando-se
de 28 às 03 UTC a 28 às 05 UTC
Vento 15 kt de nor-noroeste com rajadas de 25 kt

TAF: OBBI 271700Z 2718/2900 32012KT 8000 NSC BECMG 2803/2805 34015G25KT

Observações e previsões do tempo de mais de 4000 aeroportos (mensagens METAR e TAF).

As estações disponíveis são os pontos amarelos e vermelhos sobre o mapa.

Mova o rato sobre o mapa para ver o nome da estação.

Depois clique no ponto para visualizar as observações e previsões meteorológicas.

Para alterar o mapa : clique nos botões verdes com uma cruz preta para aumentar o zoom; no botão verde com uma pitada de zoom; ou nas setas verdes para mapas adjacentes.


METAR-TAF: